createdAt,value
2016-07-21T00:00:00.099Z,10.17
2016-07-21T00:00:08.792Z,10.17
2016-07-21T00:00:17.481Z,10.17
2016-07-21T00:00:26.220Z,10.15
2016-07-21T00:00:34.920Z,10.12
2016-07-21T00:00:44.294Z,10.06
2016-07-21T00:00:53.014Z,10.07
2016-07-21T00:01:01.758Z,10.07
2016-07-21T00:01:10.503Z,10.1
2016-07-21T00:01:19.196Z,10.14
2016-07-21T00:01:28.633Z,10.15
2016-07-21T00:01:37.347Z,10.1
2016-07-21T00:01:46.031Z,10.1
2016-07-21T00:01:54.733Z,10.07
2016-07-21T00:02:03.454Z,10.04
2016-07-21T00:02:12.163Z,10.07
2016-07-21T00:02:20.911Z,10.07
2016-07-21T00:02:29.611Z,10.03
2016-07-21T00:02:38.346Z,10.04
2016-07-21T00:02:47.023Z,10.01
2016-07-21T00:02:55.724Z,10.01
2016-07-21T00:03:04.424Z,10.03
2016-07-21T00:03:13.126Z,10.01
2016-07-21T00:03:21.835Z,9.99
2016-07-21T00:03:30.541Z,10.07
2016-07-21T00:03:39.954Z,9.99
2016-07-21T00:03:48.688Z,10.03
2016-07-21T00:03:57.377Z,10.1
2016-07-21T00:04:06.066Z,10.1
2016-07-21T00:04:14.735Z,9.97
2016-07-21T00:04:23.435Z,10.07
2016-07-21T00:04:32.207Z,10.07
2016-07-21T00:04:40.956Z,10.04
2016-07-21T00:04:49.706Z,10.03
2016-07-21T00:04:58.446Z,10
2016-07-21T00:05:07.159Z,10.04
2016-07-21T00:05:15.865Z,10.06
2016-07-21T00:05:24.569Z,10.01
2016-07-21T00:05:33.312Z,10
2016-07-21T00:05:42.013Z,10.03
2016-07-21T00:05:50.694Z,10.06
2016-07-21T00:05:59.407Z,10.04
2016-07-21T00:06:08.127Z,9.99
2016-07-21T00:06:16.827Z,10.03
2016-07-21T00:06:25.528Z,9.97
2016-07-21T00:06:34.246Z,10.06
2016-07-21T00:06:42.988Z,10.03
2016-07-21T00:06:51.693Z,10.09
2016-07-21T00:07:00.410Z,10.03
2016-07-21T00:07:09.080Z,10.04
2016-07-21T00:07:17.782Z,10.07
2016-07-21T00:07:26.477Z,10.04
2016-07-21T00:07:35.151Z,10.01
2016-07-21T00:07:43.860Z,10.04
2016-07-21T00:07:52.582Z,10.07
2016-07-21T00:08:01.313Z,10.07
2016-07-21T00:08:09.991Z,10.07
2016-07-21T00:08:18.732Z,10.04
2016-07-21T00:08:27.449Z,10.09
2016-07-21T00:08:36.139Z,10.09
2016-07-21T00:08:44.836Z,10.06
2016-07-21T00:08:53.513Z,10.01
2016-07-21T00:09:02.210Z,10.07
2016-07-21T00:09:10.951Z,10.09
2016-07-21T00:09:19.655Z,10.07
2016-07-21T00:09:28.401Z,10.03
2016-07-21T00:09:37.819Z,10.03
2016-07-21T00:09:46.507Z,10.07
2016-07-21T00:09:55.227Z,10.04
2016-07-21T00:10:03.953Z,10
2016-07-21T00:10:12.666Z,10.01
2016-07-21T00:10:21.363Z,9.97
2016-07-21T00:10:30.073Z,9.96
2016-07-21T00:10:38.805Z,9.94
2016-07-21T00:10:48.173Z,9.91
2016-07-21T00:10:56.852Z,9.94
2016-07-21T00:11:05.564Z,9.97
2016-07-21T00:11:14.277Z,9.89
2016-07-21T00:11:23.001Z,9.97
2016-07-21T00:11:31.712Z,9.96
2016-07-21T00:11:40.422Z,9.97
2016-07-21T00:11:49.133Z,9.96
2016-07-21T00:11:57.814Z,9.93
2016-07-21T00:12:06.566Z,9.97
2016-07-21T00:12:15.288Z,9.93
2016-07-21T00:12:23.989Z,9.96
2016-07-21T00:12:32.734Z,9.96
2016-07-21T00:12:41.457Z,9.89
2016-07-21T00:12:50.181Z,9.88
2016-07-21T00:12:58.911Z,9.96
2016-07-21T00:13:07.662Z,9.96
2016-07-21T00:13:16.362Z,9.99
2016-07-21T00:13:25.031Z,9.94
2016-07-21T00:13:33.761Z,10
2016-07-21T00:13:42.442Z,9.94
2016-07-21T00:13:51.151Z,9.94
2016-07-21T00:13:59.844Z,9.97
2016-07-21T00:14:08.549Z,10
2016-07-21T00:14:17.238Z,10.07
2016-07-21T00:14:25.941Z,10.03
2016-07-21T00:14:34.621Z,10.04
2016-07-21T00:14:43.348Z,10.04
2016-07-21T00:14:52.080Z,10
2016-07-21T00:15:00.782Z,10.04
2016-07-21T00:15:10.156Z,9.96
2016-07-21T00:15:18.838Z,10.06
2016-07-21T00:15:27.549Z,10.04
2016-07-21T00:15:36.260Z,10.01
2016-07-21T00:15:44.941Z,10.04
2016-07-21T00:15:53.685Z,10.04
2016-07-21T00:16:02.406Z,10.03
2016-07-21T00:16:11.124Z,9.99
2016-07-21T00:16:19.845Z,10.01
2016-07-21T00:16:28.547Z,9.91
2016-07-21T00:16:37.243Z,10.09
2016-07-21T00:16:45.964Z,9.97
2016-07-21T00:16:54.645Z,9.97
2016-07-21T00:17:03.339Z,9.96
2016-07-21T00:17:12.070Z,9.97
2016-07-21T00:17:20.811Z,9.86
2016-07-21T00:17:29.514Z,9.91
2016-07-21T00:17:38.234Z,9.89
2016-07-21T00:17:46.968Z,9.86
2016-07-21T00:17:55.677Z,9.91
2016-07-21T00:18:04.394Z,9.93
2016-07-21T00:18:13.082Z,9.94
2016-07-21T00:18:21.796Z,9.96
2016-07-21T00:18:30.479Z,9.93
2016-07-21T00:18:39.204Z,9.91
2016-07-21T00:18:47.937Z,9.96
2016-07-21T00:18:56.676Z,9.96
2016-07-21T00:19:05.381Z,9.91
2016-07-21T00:19:14.073Z,9.97
2016-07-21T00:19:22.794Z,9.96
2016-07-21T00:19:31.477Z,9.82
2016-07-21T00:19:40.208Z,9.91
2016-07-21T00:19:49.669Z,9.89
2016-07-21T00:19:58.354Z,9.93
2016-07-21T00:20:07.094Z,9.91
2016-07-21T00:20:15.812Z,9.82
2016-07-21T00:20:25.216Z,9.93
2016-07-21T00:20:33.963Z,9.88
2016-07-21T00:20:42.667Z,9.91
2016-07-21T00:20:51.377Z,9.91
2016-07-21T00:21:00.122Z,9.83
2016-07-21T00:21:08.811Z,9.89
2016-07-21T00:21:17.519Z,9.86
2016-07-21T00:21:26.252Z,9.83
2016-07-21T00:21:34.941Z,9.91
2016-07-21T00:21:43.630Z,9.85
2016-07-21T00:21:52.365Z,9.79
2016-07-21T00:22:01.111Z,9.85
2016-07-21T00:22:09.827Z,9.83
2016-07-21T00:22:18.531Z,9.76
2016-07-21T00:22:27.235Z,9.83
2016-07-21T00:22:35.961Z,9.83
2016-07-21T00:22:44.614Z,9.76
2016-07-21T00:22:53.318Z,9.75
2016-07-21T00:23:02.023Z,9.73
2016-07-21T00:23:10.716Z,9.89
2016-07-21T00:23:19.478Z,9.81
2016-07-21T00:23:28.204Z,9.88
2016-07-21T00:23:36.971Z,9.83
2016-07-21T00:23:45.715Z,9.86
2016-07-21T00:23:54.458Z,9.89
2016-07-21T00:24:03.158Z,9.86
2016-07-21T00:24:11.875Z,9.82
2016-07-21T00:24:20.575Z,9.76
2016-07-21T00:24:29.262Z,9.85
2016-07-21T00:24:37.982Z,9.76
2016-07-21T00:24:46.670Z,9.86
2016-07-21T00:24:55.405Z,9.76
2016-07-21T00:25:04.122Z,9.83
2016-07-21T00:25:12.814Z,9.78
2016-07-21T00:25:21.540Z,9.71
2016-07-21T00:25:30.260Z,9.78
2016-07-21T00:25:38.971Z,9.81
2016-07-21T00:25:47.684Z,9.78
2016-07-21T00:25:56.370Z,9.78
2016-07-21T00:26:05.078Z,9.67
2016-07-21T00:26:13.792Z,9.68
2016-07-21T00:26:22.509Z,9.73
2016-07-21T00:26:31.227Z,9.73
2016-07-21T00:26:39.946Z,9.7
2016-07-21T00:26:48.662Z,9.7
2016-07-21T00:26:57.369Z,9.64
2016-07-21T00:27:06.090Z,9.7
2016-07-21T00:27:14.776Z,9.66
2016-07-21T00:27:23.453Z,9.7
2016-07-21T00:27:32.158Z,9.66
2016-07-21T00:27:40.872Z,9.67
2016-07-21T00:27:49.599Z,9.66
2016-07-21T00:27:58.281Z,9.68
2016-07-21T00:28:06.965Z,9.73
2016-07-21T00:28:15.647Z,9.68
2016-07-21T00:28:24.359Z,9.7
2016-07-21T00:28:33.068Z,9.71
2016-07-21T00:28:41.787Z,9.67
2016-07-21T00:28:51.165Z,9.63
2016-07-21T00:28:59.870Z,9.61
2016-07-21T00:29:08.587Z,9.67
2016-07-21T00:29:17.329Z,9.6
2016-07-21T00:29:26.053Z,9.66
2016-07-21T00:29:34.777Z,9.71
2016-07-21T00:29:43.473Z,9.61
2016-07-21T00:29:52.179Z,9.61
2016-07-21T00:30:00.881Z,9.67
2016-07-21T00:30:09.564Z,9.73
2016-07-21T00:30:18.263Z,9.6
2016-07-21T00:30:27.007Z,9.64
2016-07-21T00:30:35.747Z,9.53
2016-07-21T00:30:44.456Z,9.5
2016-07-21T00:30:53.178Z,9.58
2016-07-21T00:31:01.882Z,9.58
2016-07-21T00:31:10.616Z,9.56
2016-07-21T00:31:19.289Z,9.53
2016-07-21T00:31:28.043Z,9.58
2016-07-21T00:31:36.748Z,9.52
2016-07-21T00:31:45.472Z,9.57
2016-07-21T00:31:54.171Z,9.57
2016-07-21T00:32:02.909Z,9.64
2016-07-21T00:32:11.621Z,9.64
2016-07-21T00:32:20.983Z,9.58
2016-07-21T00:32:29.727Z,9.64
2016-07-21T00:32:38.447Z,9.66
2016-07-21T00:32:47.177Z,9.64
2016-07-21T00:32:55.886Z,9.64
2016-07-21T00:33:04.614Z,9.58
2016-07-21T00:33:13.327Z,9.63
2016-07-21T00:33:22.082Z,9.67
2016-07-21T00:33:30.799Z,9.6
2016-07-21T00:33:39.483Z,9.64
2016-07-21T00:33:48.216Z,9.61
2016-07-21T00:33:56.917Z,9.61
2016-07-21T00:34:05.573Z,9.63
2016-07-21T00:34:14.293Z,9.67
2016-07-21T00:34:22.967Z,9.66
2016-07-21T00:34:31.690Z,9.6
2016-07-21T00:34:40.434Z,9.68
2016-07-21T00:34:49.125Z,9.71
2016-07-21T00:34:57.849Z,9.68
2016-07-21T00:35:06.535Z,9.67
2016-07-21T00:35:15.260Z,9.73
2016-07-21T00:35:23.973Z,9.7
2016-07-21T00:35:32.695Z,9.68
2016-07-21T00:35:41.395Z,9.68
2016-07-21T00:35:50.133Z,9.61
2016-07-21T00:35:58.834Z,9.68
2016-07-21T00:36:07.514Z,9.68
2016-07-21T00:36:16.172Z,9.66
2016-07-21T00:36:24.875Z,9.6
2016-07-21T00:36:33.660Z,9.7
2016-07-21T00:36:42.382Z,9.61
2016-07-21T00:36:51.063Z,9.6
2016-07-21T00:36:59.797Z,9.66
2016-07-21T00:37:08.536Z,9.6
2016-07-21T00:37:17.246Z,9.63
2016-07-21T00:37:25.941Z,9.73
2016-07-21T00:37:34.628Z,9.63
2016-07-21T00:37:43.370Z,9.64
2016-07-21T00:37:52.095Z,9.61
2016-07-21T00:38:00.785Z,9.61
2016-07-21T00:38:09.474Z,9.6
2016-07-21T00:38:18.150Z,9.68
2016-07-21T00:38:26.863Z,9.63
2016-07-21T00:38:35.562Z,9.57
2016-07-21T00:38:44.254Z,9.67
2016-07-21T00:38:52.971Z,9.63
2016-07-21T00:39:01.675Z,9.6
2016-07-21T00:39:10.384Z,9.73
2016-07-21T00:39:19.141Z,9.73
2016-07-21T00:39:27.835Z,9.58
2016-07-21T00:39:36.527Z,9.61
2016-07-21T00:39:45.255Z,9.61
2016-07-21T00:39:53.968Z,9.5
2016-07-21T00:40:02.655Z,9.56
2016-07-21T00:40:11.414Z,9.71
2016-07-21T00:40:20.120Z,9.63
2016-07-21T00:40:28.850Z,9.61
2016-07-21T00:40:37.549Z,9.64
2016-07-21T00:40:46.211Z,9.66
2016-07-21T00:40:54.897Z,9.75
2016-07-21T00:41:03.600Z,9.49
2016-07-21T00:41:12.342Z,9.67
2016-07-21T00:41:21.062Z,9.53
2016-07-21T00:41:29.800Z,9.56
2016-07-21T00:41:38.531Z,9.58
2016-07-21T00:41:47.244Z,9.57
2016-07-21T00:41:55.968Z,9.53
2016-07-21T00:42:04.678Z,9.52
2016-07-21T00:42:13.381Z,9.48
2016-07-21T00:42:22.087Z,9.53
2016-07-21T00:42:30.766Z,9.53
2016-07-21T00:42:39.457Z,9.64
2016-07-21T00:42:48.135Z,9.5
2016-07-21T00:42:57.509Z,9.56
2016-07-21T00:43:06.214Z,9.63
2016-07-21T00:43:14.912Z,9.46
2016-07-21T00:43:23.632Z,9.5
2016-07-21T00:43:32.372Z,9.53
2016-07-21T00:43:41.113Z,9.5
2016-07-21T00:43:49.833Z,9.53
2016-07-21T00:43:58.517Z,9.48
2016-07-21T00:44:07.210Z,9.5
2016-07-21T00:44:15.891Z,9.49
2016-07-21T00:44:24.575Z,9.53
2016-07-21T00:44:33.284Z,9.49
2016-07-21T00:44:41.987Z,9.61
2016-07-21T00:44:50.672Z,9.57
2016-07-21T00:44:59.355Z,9.63
2016-07-21T00:45:08.112Z,9.61
2016-07-21T00:45:16.841Z,9.58
2016-07-21T00:45:25.591Z,9.66
2016-07-21T00:45:34.311Z,9.53
2016-07-21T00:45:43.039Z,9.52
2016-07-21T00:45:51.739Z,9.58
2016-07-21T00:46:00.419Z,9.52
2016-07-21T00:46:09.145Z,9.57
2016-07-21T00:46:17.884Z,9.53
2016-07-21T00:46:26.588Z,9.53
2016-07-21T00:46:35.293Z,9.67
2016-07-21T00:46:44.042Z,9.58
2016-07-21T00:46:52.708Z,9.68
2016-07-21T00:47:01.456Z,9.63
2016-07-21T00:47:10.210Z,9.6
2016-07-21T00:47:18.907Z,9.76
2016-07-21T00:47:27.602Z,9.61
2016-07-21T00:47:36.358Z,9.67
2016-07-21T00:47:45.110Z,9.63
2016-07-21T00:47:53.845Z,9.64
2016-07-21T00:48:02.583Z,9.61
2016-07-21T00:48:11.257Z,9.67
2016-07-21T00:48:19.943Z,9.61
2016-07-21T00:48:29.306Z,9.57
2016-07-21T00:48:38.013Z,9.64
2016-07-21T00:48:46.707Z,9.61
2016-07-21T00:48:55.409Z,9.67
2016-07-21T00:49:04.169Z,9.58
2016-07-21T00:49:12.920Z,9.66
2016-07-21T00:49:21.667Z,9.63
2016-07-21T00:49:30.414Z,9.63
2016-07-21T00:49:39.133Z,9.78
2016-07-21T00:49:47.844Z,9.58
2016-07-21T00:49:56.584Z,9.58
2016-07-21T00:50:05.261Z,9.73
2016-07-21T00:50:13.986Z,9.52
2016-07-21T00:50:22.734Z,9.67
2016-07-21T00:50:31.487Z,9.66
2016-07-21T00:50:40.202Z,9.66
2016-07-21T00:50:48.861Z,9.48
2016-07-21T00:50:57.542Z,9.52
2016-07-21T00:51:06.227Z,9.52
2016-07-21T00:51:14.946Z,9.58
2016-07-21T00:51:23.641Z,9.66
2016-07-21T00:51:32.371Z,9.48
2016-07-21T00:51:41.061Z,9.57
2016-07-21T00:51:49.756Z,9.58
2016-07-21T00:51:58.477Z,9.56
2016-07-21T00:52:07.168Z,9.63
2016-07-21T00:52:15.890Z,9.56
2016-07-21T00:52:24.566Z,9.53
2016-07-21T00:52:33.242Z,9.58
2016-07-21T00:52:41.929Z,9.56
2016-07-21T00:52:50.667Z,9.57
2016-07-21T00:52:59.407Z,9.53
2016-07-21T00:53:08.119Z,9.56
2016-07-21T00:53:16.841Z,9.61
2016-07-21T00:53:25.566Z,9.61
2016-07-21T00:53:34.267Z,9.64
2016-07-21T00:53:42.997Z,9.66
2016-07-21T00:53:51.688Z,9.6
2016-07-21T00:54:00.372Z,9.61
2016-07-21T00:54:09.065Z,9.63
2016-07-21T00:54:17.744Z,9.76
2016-07-21T00:54:26.469Z,9.63
2016-07-21T00:54:35.181Z,9.63
2016-07-21T00:54:43.878Z,9.63
2016-07-21T00:54:52.598Z,9.61
2016-07-21T00:55:01.301Z,9.7
2016-07-21T00:55:09.983Z,9.67
2016-07-21T00:55:18.735Z,9.66
2016-07-21T00:55:27.462Z,9.66
2016-07-21T00:55:36.184Z,9.68
2016-07-21T00:55:44.873Z,9.64
2016-07-21T00:55:53.620Z,9.63
2016-07-21T00:56:02.332Z,9.71
2016-07-21T00:56:11.056Z,9.68
2016-07-21T00:56:19.766Z,9.71
2016-07-21T00:56:28.479Z,9.68
2016-07-21T00:56:37.186Z,9.68
2016-07-21T00:56:45.907Z,9.68
2016-07-21T00:56:54.619Z,9.7
2016-07-21T00:57:03.308Z,9.71
2016-07-21T00:57:12.021Z,9.76
2016-07-21T00:57:20.711Z,9.71
2016-07-21T00:57:29.418Z,9.78
2016-07-21T00:57:38.122Z,9.76
2016-07-21T00:57:46.807Z,9.73
2016-07-21T00:57:55.527Z,9.7
2016-07-21T00:58:04.221Z,9.76
2016-07-21T00:58:12.931Z,9.81
2016-07-21T00:58:21.642Z,9.71
2016-07-21T00:58:30.394Z,9.68
2016-07-21T00:58:39.128Z,9.66
2016-07-21T00:58:47.832Z,9.75
2016-07-21T00:58:56.548Z,9.76
2016-07-21T00:59:05.907Z,9.71
2016-07-21T00:59:14.632Z,9.73
2016-07-21T00:59:23.338Z,9.71
2016-07-21T00:59:32.035Z,9.78
2016-07-21T00:59:40.752Z,9.7
2016-07-21T00:59:49.502Z,9.81
2016-07-21T00:59:58.190Z,9.76
2016-07-21T01:00:06.939Z,9.68
2016-07-21T01:00:15.675Z,9.73
2016-07-21T01:00:24.393Z,9.78
2016-07-21T01:00:33.094Z,9.76
2016-07-21T01:00:41.791Z,9.78
2016-07-21T01:00:50.538Z,9.7
2016-07-21T01:00:59.271Z,9.75
2016-07-21T01:01:07.961Z,9.71
2016-07-21T01:01:16.698Z,9.73
2016-07-21T01:01:25.411Z,9.71
2016-07-21T01:01:34.084Z,9.66
2016-07-21T01:01:42.759Z,9.78
2016-07-21T01:01:51.435Z,9.76
2016-07-21T01:02:00.181Z,9.7
2016-07-21T01:02:08.864Z,9.7
2016-07-21T01:02:17.611Z,9.67
2016-07-21T01:02:26.291Z,9.68
2016-07-21T01:02:35.664Z,9.66
2016-07-21T01:02:44.403Z,9.66
2016-07-21T01:02:53.789Z,9.67
2016-07-21T01:03:02.504Z,9.71
2016-07-21T01:03:11.215Z,9.66
2016-07-21T01:03:19.897Z,9.68
2016-07-21T01:03:28.615Z,9.66
2016-07-21T01:03:37.363Z,9.66
2016-07-21T01:03:46.084Z,9.67
2016-07-21T01:03:54.812Z,9.66
2016-07-21T01:04:03.559Z,9.61
2016-07-21T01:04:12.258Z,9.66
2016-07-21T01:04:20.983Z,9.63
2016-07-21T01:04:29.680Z,9.64
2016-07-21T01:04:38.395Z,9.7
2016-07-21T01:04:47.799Z,9.64
2016-07-21T01:04:56.524Z,9.75
2016-07-21T01:05:05.222Z,9.56
2016-07-21T01:05:13.916Z,9.7
2016-07-21T01:05:22.617Z,9.58
2016-07-21T01:05:31.341Z,9.6
2016-07-21T01:05:40.013Z,9.48
2016-07-21T01:05:48.712Z,9.56
2016-07-21T01:05:57.447Z,9.64
2016-07-21T01:06:06.147Z,9.58
2016-07-21T01:06:15.563Z,9.64
2016-07-21T01:06:24.304Z,9.56
2016-07-21T01:06:33.032Z,9.57
2016-07-21T01:06:41.731Z,9.57
2016-07-21T01:06:50.444Z,9.58
2016-07-21T01:06:59.140Z,9.73
2016-07-21T01:07:07.840Z,9.64
2016-07-21T01:07:16.546Z,9.63
2016-07-21T01:07:25.255Z,9.61
2016-07-21T01:07:34.012Z,9.66
2016-07-21T01:07:42.726Z,9.66
2016-07-21T01:07:51.467Z,9.64
2016-07-21T01:08:00.162Z,9.68
2016-07-21T01:08:08.862Z,9.68
2016-07-21T01:08:17.569Z,9.66
2016-07-21T01:08:26.905Z,9.7
2016-07-21T01:08:35.608Z,9.67
2016-07-21T01:08:44.357Z,9.71
2016-07-21T01:08:53.016Z,9.64
2016-07-21T01:09:01.742Z,9.71
2016-07-21T01:09:10.458Z,9.63
2016-07-21T01:09:19.198Z,9.67
2016-07-21T01:09:27.864Z,9.7
2016-07-21T01:09:36.625Z,9.73
2016-07-21T01:09:45.370Z,9.73
2016-07-21T01:09:54.073Z,9.76
2016-07-21T01:10:02.796Z,9.75
2016-07-21T01:10:11.492Z,9.71
2016-07-21T01:10:20.239Z,9.73
2016-07-21T01:10:28.959Z,9.81
2016-07-21T01:10:37.700Z,9.76
2016-07-21T01:10:46.423Z,9.71
2016-07-21T01:10:55.147Z,9.78
2016-07-21T01:11:03.858Z,9.79
2016-07-21T01:11:13.266Z,9.73
2016-07-21T01:11:21.990Z,9.73
2016-07-21T01:11:30.709Z,9.81
2016-07-21T01:11:39.404Z,9.75
2016-07-21T01:11:48.138Z,9.75
2016-07-21T01:11:56.859Z,9.89
2016-07-21T01:12:05.536Z,9.83
2016-07-21T01:12:14.242Z,9.85
2016-07-21T01:12:22.961Z,9.89
2016-07-21T01:12:31.665Z,9.76
2016-07-21T01:12:40.415Z,9.86
2016-07-21T01:12:49.181Z,9.86
2016-07-21T01:12:57.855Z,9.75
2016-07-21T01:13:06.578Z,9.79
2016-07-21T01:13:15.277Z,9.7
2016-07-21T01:13:24.041Z,9.78
2016-07-21T01:13:32.764Z,9.75
2016-07-21T01:13:41.480Z,9.81
2016-07-21T01:13:50.202Z,9.76
2016-07-21T01:13:58.882Z,9.78
2016-07-21T01:14:07.591Z,9.78
2016-07-21T01:14:16.303Z,9.82
2016-07-21T01:14:24.999Z,9.76
2016-07-21T01:14:33.682Z,9.68
2016-07-21T01:14:42.382Z,9.67
2016-07-21T01:14:51.121Z,9.7
2016-07-21T01:14:59.849Z,9.78
2016-07-21T01:15:08.586Z,9.73
2016-07-21T01:15:17.289Z,9.7
2016-07-21T01:15:25.996Z,9.76
2016-07-21T01:15:34.707Z,9.75
2016-07-21T01:15:43.388Z,9.68
2016-07-21T01:15:52.056Z,9.78
2016-07-21T01:16:00.745Z,9.71
2016-07-21T01:16:09.498Z,9.76
2016-07-21T01:16:18.162Z,9.68
2016-07-21T01:16:26.910Z,9.71
2016-07-21T01:16:35.586Z,9.73
2016-07-21T01:16:44.263Z,9.64
2016-07-21T01:16:52.990Z,9.7
2016-07-21T01:17:01.672Z,9.63
2016-07-21T01:17:10.410Z,9.68
2016-07-21T01:17:19.138Z,9.67
2016-07-21T01:17:27.840Z,9.73
2016-07-21T01:17:36.551Z,9.73
2016-07-21T01:17:45.276Z,9.66
2016-07-21T01:17:53.954Z,9.7
2016-07-21T01:18:02.661Z,9.71
2016-07-21T01:18:11.341Z,9.61
2016-07-21T01:18:20.067Z,9.68
2016-07-21T01:18:28.784Z,9.71
2016-07-21T01:18:37.518Z,9.68
2016-07-21T01:18:46.263Z,9.73
2016-07-21T01:18:54.941Z,9.66
2016-07-21T01:19:03.658Z,9.63
2016-07-21T01:19:12.359Z,9.67
2016-07-21T01:19:21.051Z,9.71
2016-07-21T01:19:29.798Z,9.66
2016-07-21T01:19:38.510Z,9.64
2016-07-21T01:19:47.960Z,9.71
2016-07-21T01:19:56.639Z,9.68
2016-07-21T01:20:05.388Z,9.75
2016-07-21T01:20:14.141Z,9.71
2016-07-21T01:20:22.893Z,9.76
2016-07-21T01:20:31.578Z,9.78
2016-07-21T01:20:40.268Z,9.68
2016-07-21T01:20:48.976Z,9.79
2016-07-21T01:20:57.656Z,9.78
2016-07-21T01:21:06.346Z,9.81
2016-07-21T01:21:15.064Z,9.78
2016-07-21T01:21:23.746Z,9.76
2016-07-21T01:21:32.462Z,9.78
2016-07-21T01:21:41.179Z,9.83
2016-07-21T01:21:49.854Z,9.91
2016-07-21T01:21:58.558Z,9.86
2016-07-21T01:22:07.300Z,9.85
2016-07-21T01:22:16.005Z,9.89
2016-07-21T01:22:24.716Z,9.91
2016-07-21T01:22:33.454Z,9.91
2016-07-21T01:22:42.861Z,9.94
2016-07-21T01:22:51.560Z,9.94
2016-07-21T01:23:00.269Z,9.89
2016-07-21T01:23:08.939Z,9.91
2016-07-21T01:23:17.665Z,9.99
2016-07-21T01:23:26.374Z,9.96
2016-07-21T01:23:35.047Z,10
2016-07-21T01:23:43.751Z,10.07
2016-07-21T01:23:52.499Z,10.06
2016-07-21T01:24:01.231Z,10.03
2016-07-21T01:24:09.972Z,10.03
2016-07-21T01:24:18.739Z,10.07
2016-07-21T01:24:27.435Z,10
2016-07-21T01:24:36.154Z,10.01
2016-07-21T01:24:44.867Z,10.01
2016-07-21T01:24:53.534Z,10.04
2016-07-21T01:25:02.279Z,10.01
2016-07-21T01:25:10.994Z,10.09
2016-07-21T01:25:19.658Z,10.06
2016-07-21T01:25:28.347Z,10.04
2016-07-21T01:25:37.046Z,10.06
2016-07-21T01:25:45.728Z,9.97
2016-07-21T01:25:54.439Z,10.03
2016-07-21T01:26:03.144Z,10.06
2016-07-21T01:26:11.864Z,9.97
2016-07-21T01:26:21.241Z,9.97
2016-07-21T01:26:29.970Z,10.12
2016-07-21T01:26:38.675Z,10
2016-07-21T01:26:47.381Z,10.09
2016-07-21T01:26:56.097Z,10.06
2016-07-21T01:27:04.828Z,10.04
2016-07-21T01:27:14.248Z,10.07
2016-07-21T01:27:22.998Z,10.06
2016-07-21T01:27:31.723Z,10.1
2016-07-21T01:27:40.463Z,10.09
2016-07-21T01:27:49.184Z,10.07
2016-07-21T01:27:57.915Z,10.1
2016-07-21T01:28:06.681Z,10.07
2016-07-21T01:28:15.389Z,10.09
2016-07-21T01:28:24.130Z,10.14
2016-07-21T01:28:32.825Z,10.07
2016-07-21T01:28:41.496Z,10.04
2016-07-21T01:28:50.225Z,10.07
2016-07-21T01:28:58.953Z,10.03
2016-07-21T01:29:07.719Z,10.07
2016-07-21T01:29:16.437Z,10.04
2016-07-21T01:29:25.169Z,10.1
2016-07-21T01:29:33.934Z,10.09
2016-07-21T01:29:42.605Z,10.07
2016-07-21T01:29:51.284Z,10.07
2016-07-21T01:30:00.000Z,10.12
2016-07-21T01:30:08.720Z,10.1
2016-07-21T01:30:17.442Z,10
2016-07-21T01:30:26.172Z,10.06
2016-07-21T01:30:34.888Z,10.07
2016-07-21T01:30:43.597Z,10.14
2016-07-21T01:30:52.968Z,10.12
2016-07-21T01:31:01.716Z,10.14
2016-07-21T01:31:10.451Z,10.07
2016-07-21T01:31:19.151Z,10.1
2016-07-21T01:31:27.824Z,10.07
2016-07-21T01:31:36.501Z,10.17
2016-07-21T01:31:45.229Z,10.07
2016-07-21T01:31:53.974Z,10.07
2016-07-21T01:32:02.676Z,10.12
2016-07-21T01:32:11.383Z,10.17
2016-07-21T01:32:20.094Z,10.12
2016-07-21T01:32:28.795Z,10.17
2016-07-21T01:32:37.485Z,10.1
2016-07-21T01:32:46.178Z,10.14
2016-07-21T01:32:54.880Z,10.19
2016-07-21T01:33:03.579Z,10.19
2016-07-21T01:33:12.268Z,10.14
2016-07-21T01:33:21.641Z,10.14
2016-07-21T01:33:30.367Z,10.12
2016-07-21T01:33:39.093Z,10.15
2016-07-21T01:33:48.497Z,10.12
2016-07-21T01:33:57.201Z,10.1
2016-07-21T01:34:05.902Z,10.07
2016-07-21T01:34:14.630Z,10.04
2016-07-21T01:34:23.375Z,10.12
2016-07-21T01:34:32.100Z,10.07
2016-07-21T01:34:40.822Z,10.07
2016-07-21T01:34:49.519Z,10.09
2016-07-21T01:34:58.205Z,10.06
2016-07-21T01:35:06.939Z,10.07
2016-07-21T01:35:15.659Z,10.07
2016-07-21T01:35:24.413Z,10.14
2016-07-21T01:35:33.128Z,10.04
2016-07-21T01:35:41.855Z,10.07
2016-07-21T01:35:50.555Z,10.1
2016-07-21T01:35:59.320Z,9.99
2016-07-21T01:36:08.040Z,10.03
2016-07-21T01:36:17.423Z,9.96
2016-07-21T01:36:26.150Z,10
2016-07-21T01:36:34.853Z,9.99
2016-07-21T01:36:43.564Z,9.94
2016-07-21T01:36:52.287Z,9.96
2016-07-21T01:37:01.026Z,9.97
2016-07-21T01:37:09.752Z,9.97
2016-07-21T01:37:18.465Z,9.91
2016-07-21T01:37:27.203Z,9.99
2016-07-21T01:37:35.878Z,9.94
2016-07-21T01:37:44.584Z,9.99
2016-07-21T01:37:53.285Z,9.96
2016-07-21T01:38:02.003Z,10.01
2016-07-21T01:38:10.712Z,10.04
2016-07-21T01:38:19.441Z,10.09
2016-07-21T01:38:28.131Z,10.04
2016-07-21T01:38:36.797Z,9.97
2016-07-21T01:38:45.539Z,10.04
2016-07-21T01:38:54.240Z,10.06
2016-07-21T01:39:03.622Z,9.96
2016-07-21T01:39:12.329Z,10.01
2016-07-21T01:39:21.011Z,10.09
2016-07-21T01:39:29.720Z,10
2016-07-21T01:39:38.458Z,10.03
2016-07-21T01:39:47.158Z,10.03
2016-07-21T01:39:55.835Z,9.97
2016-07-21T01:40:05.218Z,9.99
2016-07-21T01:40:13.940Z,10.1
2016-07-21T01:40:22.647Z,10.07
2016-07-21T01:40:31.345Z,10.09
2016-07-21T01:40:40.757Z,10.1
2016-07-21T01:40:49.466Z,10.09
2016-07-21T01:40:58.129Z,10.04
2016-07-21T01:41:06.871Z,10.06
2016-07-21T01:41:15.611Z,10.07
2016-07-21T01:41:24.306Z,10.07
2016-07-21T01:41:33.030Z,10.14
2016-07-21T01:41:41.776Z,10.06
2016-07-21T01:41:50.507Z,10.19
2016-07-21T01:41:59.190Z,10.18
2016-07-21T01:42:07.906Z,10.07
2016-07-21T01:42:16.572Z,10.15
2016-07-21T01:42:25.275Z,10.17
2016-07-21T01:42:33.997Z,10.21
2016-07-21T01:42:42.745Z,10.21
2016-07-21T01:42:51.441Z,10.17
2016-07-21T01:43:00.167Z,10.17
2016-07-21T01:43:08.908Z,10.15
2016-07-21T01:43:17.617Z,10.14
2016-07-21T01:43:26.333Z,10.22
2016-07-21T01:43:35.007Z,10.19
2016-07-21T01:43:43.686Z,10.19
2016-07-21T01:43:52.388Z,10.19
2016-07-21T01:44:01.071Z,10.17
2016-07-21T01:44:10.489Z,10.18
2016-07-21T01:44:19.187Z,10.12
2016-07-21T01:44:27.924Z,10.21
2016-07-21T01:44:36.668Z,10.21
2016-07-21T01:44:45.363Z,10.25
2016-07-21T01:44:54.089Z,10.22
2016-07-21T01:45:02.809Z,10.22
2016-07-21T01:45:11.531Z,10.22
2016-07-21T01:45:20.251Z,10.24
2016-07-21T01:45:28.964Z,10.24
2016-07-21T01:45:37.702Z,10.22
2016-07-21T01:45:46.425Z,10.25
2016-07-21T01:45:55.109Z,10.17
2016-07-21T01:46:04.480Z,10.24
2016-07-21T01:46:13.212Z,10.25
2016-07-21T01:46:21.896Z,10.19
2016-07-21T01:46:30.615Z,10.28
2016-07-21T01:46:39.344Z,10.34
2016-07-21T01:46:48.083Z,10.28
2016-07-21T01:46:56.772Z,10.26
2016-07-21T01:47:05.490Z,10.28
2016-07-21T01:47:14.196Z,10.26
2016-07-21T01:47:22.873Z,10.21
2016-07-21T01:47:31.563Z,10.19
2016-07-21T01:47:40.301Z,10.25
2016-07-21T01:47:48.964Z,10.25
2016-07-21T01:47:57.688Z,10.32
2016-07-21T01:48:06.347Z,10.28
2016-07-21T01:48:15.054Z,10.22
2016-07-21T01:48:23.767Z,10.25
2016-07-21T01:48:32.504Z,10.26
2016-07-21T01:48:41.189Z,10.3
2016-07-21T01:48:49.921Z,10.28
2016-07-21T01:48:58.637Z,10.26
2016-07-21T01:49:07.388Z,10.28
2016-07-21T01:49:16.117Z,10.28
2016-07-21T01:49:24.847Z,10.22
2016-07-21T01:49:33.524Z,10.28
2016-07-21T01:49:42.218Z,10.32
2016-07-21T01:49:50.936Z,10.33
2016-07-21T01:49:59.640Z,10.25
2016-07-21T01:50:08.332Z,10.32
2016-07-21T01:50:17.067Z,10.34
2016-07-21T01:50:25.791Z,10.4
2016-07-21T01:50:35.148Z,10.22
2016-07-21T01:50:43.804Z,10.22
2016-07-21T01:50:52.505Z,10.39
2016-07-21T01:51:01.238Z,10.25
2016-07-21T01:51:09.957Z,10.24
2016-07-21T01:51:18.668Z,10.3
2016-07-21T01:51:27.390Z,10.32
2016-07-21T01:51:36.131Z,10.3
2016-07-21T01:51:44.837Z,10.3
2016-07-21T01:51:53.534Z,10.24
2016-07-21T01:52:02.252Z,10.3
2016-07-21T01:52:10.938Z,10.28
2016-07-21T01:52:19.704Z,10.22
2016-07-21T01:52:28.453Z,10.28
2016-07-21T01:52:37.173Z,10.32
2016-07-21T01:52:45.863Z,10.25
2016-07-21T01:52:54.626Z,10.25
2016-07-21T01:53:03.346Z,10.19
2016-07-21T01:53:12.045Z,10.26
2016-07-21T01:53:20.799Z,10.26
2016-07-21T01:53:29.503Z,10.22
2016-07-21T01:53:38.186Z,10.28
2016-07-21T01:53:46.900Z,10.26
2016-07-21T01:53:55.592Z,10.24
2016-07-21T01:54:04.305Z,10.25
2016-07-21T01:54:13.047Z,10.21
2016-07-21T01:54:21.747Z,10.24
2016-07-21T01:54:30.488Z,10.22
2016-07-21T01:54:39.208Z,10.25
2016-07-21T01:54:47.899Z,10.24
2016-07-21T01:54:56.614Z,10.17
2016-07-21T01:55:05.328Z,10.22
2016-07-21T01:55:14.028Z,10.15
2016-07-21T01:55:22.749Z,10.21